Fine, New York
Current Conditions -  °F | °C
As of 12:58 AM on Wednesday 28 Jan 2015 (Local Time) from KGTB Reporting Station
Scattered Clouds Scattered Clouds  
Wind Chill:   Ceiling: Unl
Heat Index:   Visibility: 10mi
Dew Point: -7°   Wind: 3mph
Humidity: 63%   Direction: 300°WNW
Pressure: 30.01"   Gusts: NA
Location:  44.25°N, 75.14°W
Report Text: KGTB 280558Z AUTO 30003KT 10SM SCT170 SCT200 M16/M22 A3001 RMK AO2 SLP179 T11621218 11140 21168 53003
Loading
Personal Weather Stations






























Interactive Weather Map New forecast layout! Learn more

10-Day Weather Forecast

Advertisements
Track Severe Weather on mobile